Latest Weather Observations for Grafton Airport

IDN60801

Issued at 6:02 pm EDT Saturday 6 February 2016 (issued every 30 minutes, with the page automatically refreshed every 10 minutes)

About weather observations | Map of weather stations | Latest weather observations for NSW | Other Formats
Station Details ID: 058161 Name: GRAFTON AIRPORT AWS Lat: -29.76 Lon: 153.03 Height: 25.09 m
Data from the previous 72 hours. | See also: Recent months at Grafton Airport
Date/Time
EDT
Temp
°C
App
Temp
°C
Dew
Point
Rel
Hum
%
Delta-T
°C
Wind Press
QNH
hPa
Press
MSL
hPa
Rain
since 9 am
mm
Dir
 
Spd
km/h
Gust
km/h
Spd
kts
Gust
kts
06/05:55pm 21.8 22.5 19.7 88 1.3 SE 15 26 8 14 1012.7 1012.6 0.0
06/05:36pm 21.8 22.2 19.9 89 1.2 SE 17 28 9 15 1012.7 1012.6 0.0
06/05:32pm 22.1 23.3 20.0 88 1.3 SE 13 24 7 13 1012.6 1012.5 0.0
06/05:30pm 22.2 23.0 19.9 87 1.5 SE 15 24 8 13 1012.6 1012.5 0.0
06/05:12pm 22.3 22.1 19.7 85 1.7 SSE 20 30 11 16 1012.5 1012.4 0.0
06/05:09pm 22.6 22.3 19.6 83 1.9 SSE 20 30 11 16 1012.4 1012.3 0.0
06/05:00pm 22.8 22.6 19.4 81 2.2 SSE 19 28 10 15 1012.5 1012.4 0.0
06/04:52pm 22.8 23.4 19.4 81 2.2 SSE 15 28 8 15 1012.6 1012.5 0.0
06/04:30pm 24.1 23.9 19.4 75 3.0 S 19 28 10 15 1012.4 1012.3 0.0
06/04:00pm 23.4 23.6 20.2 82 2.1 SSW 19 32 10 17 1012.3 1012.2 0.0
06/03:30pm 24.2 23.5 19.5 75 3.0 S 22 32 12 17 1012.2 1012.1 0.0
06/03:00pm 24.3 23.4 19.8 76 2.9 S 24 32 13 17 1012.6 1012.5 0.0
06/02:43pm 23.5 21.0 18.8 75 3.0 S 30 48 16 26 1012.7 1012.6 0.0
06/02:30pm 25.1 23.6 19.5 71 3.6 SSE 26 41 14 22 1012.6 1012.5 0.0
06/02:00pm 23.5 22.8 19.6 79 2.5 SSE 22 33 12 18 1012.9 1012.8 0.0
06/01:30pm 24.1 24.4 20.4 80 2.4 S 19 26 10 14 1013.1 1013.0 0.0
06/01:28pm 24.1 24.3 20.2 79 2.5 S 19 26 10 14 1013.2 1013.1 0.0
06/01:10pm 22.8 22.8 19.8 83 1.9 SSE 19 32 10 17 1013.5 1013.4 0.0
06/01:08pm 23.4 23.9 20.0 81 2.2 SSE 17 28 9 15 1013.6 1013.5 0.0
06/01:00pm 23.5 23.4 19.6 79 2.5 SSE 19 26 10 14 1013.6 1013.5 0.0
06/12:55pm 23.4 23.2 19.3 78 2.6 SSE 19 26 10 14 1013.7 1013.6 0.0
06/12:30pm 24.0 24.0 18.9 73 3.2 SSE 17 28 9 15 1013.8 1013.7 0.0
06/12:00pm 24.8 22.1 18.5 68 4.0 SSE 30 48 16 26 1013.8 1013.7 0.0
06/11:56am 24.7 22.4 18.4 68 4.0 SSE 28 48 15 26 1013.8 1013.7 0.0
06/11:30am 24.9 23.6 18.1 66 4.3 S 22 39 12 21 1013.6 1013.5 0.0
06/11:00am 24.1 24.7 18.5 71 3.5 S 13 20 7 11 1014.0 1013.9 0.0
06/10:30am 23.7 24.1 19.0 75 3.0 SSE 15 24 8 13 1014.0 1013.9 0.0
06/10:00am 23.4 23.1 18.3 73 3.2 SSW 17 24 9 13 1013.9 1013.8 0.0
06/09:30am 23.1 23.6 18.4 75 3.0 S 13 20 7 11 1013.9 1013.8 0.0
06/09:00am 23.4 24.1 18.9 76 2.9 SSW 13 19 7 10 1013.8 1013.7 0.0
06/08:30am 22.6 23.0 19.0 80 2.3 S 15 17 8 9 1013.4 1013.3 0.0
06/08:00am 21.9 22.5 18.7 82 2.0 S 13 19 7 10 1013.4 1013.3 0.0
06/07:30am 21.2 22.0 18.2 83 1.9 SSW 11 15 6 8 1012.9 1012.8 0.0
06/07:00am 20.2 21.0 18.1 88 1.3 SSW 11 15 6 8 1012.6 1012.5 0.0
06/06:30am 19.7 20.8 18.0 90 1.0 SSW 9 13 5 7 1012.2 1012.1 0.0
06/06:00am 19.8 21.2 17.9 89 1.2 SSW 7 11 4 6 1012.0 1011.9 0.0
06/05:30am 19.9 21.0 18.0 89 1.2 SSW 9 15 5 8 1011.5 1011.4 0.0
06/05:00am 20.0 20.9 18.3 90 1.1 SSW 11 15 6 8 1011.5 1011.4 0.0
06/04:30am 20.0 21.0 18.7 92 0.8 SSW 11 17 6 9 1011.3 1011.2 0.0
06/04:00am 19.9 20.5 18.6 92 0.8 SSW 13 17 7 9 1011.6 1011.5 0.0
06/03:30am 20.3 21.1 19.0 92 0.8 SSW 13 15 7 8 1011.7 1011.6 0.0
06/03:00am 20.2 21.6 18.7 91 0.9 SSW 9 11 5 6 1012.1 1012.0 0.0
06/02:30am 20.3 21.0 18.8 91 0.9 S 13 19 7 10 1012.2 1012.1 0.0
06/02:00am 20.4 20.3 18.7 90 1.1 S 17 22 9 12 1012.3 1012.2 0.0
06/01:57am 20.4 20.3 18.7 90 1.1 S 17 22 9 12 1012.2 1012.1 0.0
06/01:43am 20.6 21.2 18.5 88 1.3 S 13 20 7 11 1012.6 1012.5 0.0
06/01:30am 20.5 22.1 18.3 87 1.4 S 7 11 4 6 1012.7 1012.6 0.0
06/01:00am 20.8 22.0 18.2 85 1.6 SSW 9 15 5 8 1012.8 1012.7 0.0
06/12:30am 21.2 22.3 18.0 82 2.0 SSW 9 15 5 8 1013.1 1013.0 0.0
06/12:00am 21.6 21.5 17.8 79 2.4 SSW 15 24 8 13 1013.5 1013.4 0.0
 
Date/Time
EDT
Temp
°C
App
Temp
°C
Dew
Point
Rel
Hum
%
Delta-T
°C
Wind Press
QNH
hPa
Press
MSL
hPa
Rain
since 9 am
mm
Dir
 
Spd
km/h
Gust
km/h
Spd
kts
Gust
kts
05/11:30pm 21.7 22.8 18.1 80 2.2 SSW 9 15 5 8 1013.8 1013.7 0.0
05/11:00pm 21.6 22.7 18.0 80 2.2 SSW 9 15 5 8 1013.7 1013.6 0.0
05/10:30pm 21.6 22.9 17.6 78 2.5 WSW 7 11 4 6 1013.7 1013.6 0.0
05/10:00pm 22.8 22.3 17.9 74 3.1 S 17 24 9 13 1013.8 1013.7 0.0
05/09:30pm 23.2 22.2 17.9 72 3.3 SSE 20 30 11 16 1013.5 1013.4 0.0
05/09:00pm 22.9 22.3 17.6 72 3.3 S 17 26 9 14 1013.0 1012.9 0.0
05/08:30pm 22.9 22.7 17.6 72 3.3 S 15 22 8 12 1012.6 1012.5 0.0
05/08:00pm 23.1 22.5 17.6 71 3.4 S 17 28 9 15 1012.4 1012.3 0.0
05/07:30pm 24.0 22.3 17.3 66 4.2 SSE 22 33 12 18 1011.9 1011.8 0.0
05/07:00pm 24.5 22.5 17.5 65 4.4 SSE 24 35 13 19 1011.6 1011.5 0.0
05/06:30pm 24.5 22.2 17.7 66 4.3 SSE 26 35 14 19 1011.3 1011.2 0.0
05/06:00pm 25.2 23.7 18.6 67 4.2 S 24 33 13 18 1011.1 1011.0 0.0
05/05:30pm 23.6 21.4 18.7 74 3.1 S 28 41 15 22 1011.2 1011.1 0.0
05/05:00pm 25.2 23.5 18.2 65 4.4 S 24 41 13 22 1010.8 1010.7 0.0
05/04:30pm 26.1 26.9 21.3 75 3.2 SSE 19 28 10 15 1010.7 1010.6 0.0
05/04:00pm 27.3 25.3 17.5 55 6.2 SSE 24 35 13 19 1010.8 1010.7 0.0
05/03:30pm 27.1 24.9 17.0 54 6.3 SSE 24 33 13 18 1010.9 1010.8 0.0
05/03:00pm 27.7 26.6 17.3 53 6.5 SSE 19 28 10 15 1010.8 1010.7 0.0
05/02:30pm 27.2 25.2 17.4 55 6.2 S 24 46 13 25 1010.9 1010.8 0.0
05/02:00pm 28.4 26.0 18.2 54 6.5 S 28 43 15 23 1011.0 1010.9 0.0
05/01:30pm 27.6 24.6 17.7 54 6.3 S 30 46 16 25 1011.1 1011.0 0.0
05/01:26pm 27.9 25.5 18.3 56 6.1 S 28 46 15 25 1011.2 1011.1 0.0
05/01:00pm 27.4 25.7 18.1 57 5.9 S 24 35 13 19 1011.3 1011.2 0.0
05/12:30pm 27.1 23.7 17.6 56 6.0 S 32 46 17 25 1011.6 1011.5 0.0
05/12:21pm 27.4 24.9 18.1 57 5.9 S 28 46 15 25 1011.7 1011.6 0.0
05/12:00pm 26.2 24.2 18.3 61 5.0 S 26 35 14 19 1011.7 1011.6 0.0
05/11:30am 26.1 23.9 18.8 64 4.7 S 28 35 15 19 1011.8 1011.7 0.0
05/11:00am 25.9 24.9 18.8 65 4.5 SSW 22 30 12 16 1011.7 1011.6 0.0
05/10:30am 25.7 24.7 17.9 62 4.9 S 20 32 11 17 1011.6 1011.5 0.0
05/10:00am 25.1 22.7 18.3 66 4.3 S 28 44 15 24 1011.4 1011.3 0.0
05/09:30am 24.5 21.4 17.5 65 4.4 S 30 46 16 25 1011.3 1011.2 0.0
05/09:24am 24.5 21.9 17.7 66 4.3 S 28 46 15 25 1011.2 1011.1 0.0
05/09:00am 24.7 23.5 18.4 68 4.0 S 22 37 12 20 1010.8 1010.7 0.0
05/08:30am 24.0 22.3 18.2 70 3.6 SSW 24 37 13 20 1010.6 1010.5 0.0
05/08:00am 22.7 23.0 18.0 75 2.9 SSW 13 26 7 14 1010.4 1010.3 0.0
05/07:30am 22.5 22.9 18.1 76 2.7 SSW 13 22 7 12 1010.0 1009.9 0.0
05/07:00am 22.0 22.3 18.0 78 2.5 SSW 13 19 7 10 1009.8 1009.7 0.0
05/06:30am 21.7 21.3 18.1 80 2.2 SSW 17 26 9 14 1009.5 1009.4 0.0
05/06:00am 21.4 20.6 18.0 81 2.1 S 19 28 10 15 1008.9 1008.7 0.0
05/05:30am 21.7 21.6 17.9 79 2.4 SSW 15 24 8 13 1008.6 1008.4 0.0
05/05:00am 21.8 22.1 18.0 79 2.4 SSW 13 17 7 9 1008.6 1008.4 0.0
05/04:30am 21.5 22.2 17.9 80 2.2 SSW 11 15 6 8 1008.5 1008.3 0.0
05/04:00am 21.3 22.0 17.9 81 2.1 SSW 11 17 6 9 1008.2 1008.0 0.0
05/03:30am 20.5 22.0 17.7 84 1.7 SW 6 9 3 5 1008.3 1008.1 0.0
05/03:00am 20.7 22.0 17.5 82 2.0 S 7 9 4 5 1008.5 1008.3 0.0
05/02:30am 21.7 22.7 17.7 78 2.5 SSW 9 13 5 7 1008.6 1008.4 0.0
05/02:00am 21.5 22.5 17.7 79 2.4 SSW 9 15 5 8 1008.9 1008.7 0.0
05/01:30am 21.7 22.5 18.1 80 2.2 SSW 11 17 6 9 1009.3 1009.2 0.0
05/01:00am 21.1 22.7 18.3 84 1.7 WSW 7 11 4 6 1009.7 1009.6 0.0
05/12:30am 21.0 22.7 18.4 85 1.6 SW 7 9 4 5 1009.9 1009.8 0.0
05/12:00am 21.4 22.9 18.8 85 1.6 SSW 9 13 5 7 1010.0 1009.9 0.0
 
Date/Time
EDT
Temp
°C
App
Temp
°C
Dew
Point
Rel
Hum
%
Delta-T
°C
Wind Press
QNH
hPa
Press
MSL
hPa
Rain
since 9 am
mm
Dir
 
Spd
km/h
Gust
km/h
Spd
kts
Gust
kts
04/11:30pm 20.5 22.3 18.8 90 1.1 SSW 7 11 4 6 1010.2 1010.1 0.0
04/11:00pm 20.7 22.6 18.5 87 1.4 S 6 7 3 4 1010.1 1010.0 0.0
04/10:30pm 21.2 23.3 18.9 87 1.4 S 6 7 3 4 1010.1 1010.0 0.0
04/10:00pm 21.4 23.2 18.8 85 1.6 S 7 9 4 5 1010.0 1009.9 0.0
04/09:30pm 22.3 25.3 18.5 79 2.4 CALM 0 0 0 0 1009.9 1009.8 0.0
04/09:00pm 22.8 24.4 18.3 76 2.8 S 7 9 4 5 1009.4 1009.3 0.0
04/08:30pm 23.4 25.7 18.5 74 3.1 S 4 9 2 5 1009.1 1009.0 0.0
04/08:00pm 23.8 23.6 18.4 72 3.4 SSE 17 24 9 13 1008.7 1008.5 0.0
04/07:30pm 24.2 24.1 18.8 72 3.4 S 17 22 9 12 1008.5 1008.3 0.0
04/07:00pm 24.7 25.1 18.9 70 3.7 SSE 15 30 8 16 1008.1 1007.9 0.0
04/06:30pm 25.3 26.0 19.7 71 3.6 S 15 20 8 11 1007.6 1007.4 0.0
04/06:00pm 24.9 26.0 19.7 73 3.4 S 13 20 7 11 1007.1 1006.9 0.0
04/05:30pm 24.6 25.1 20.1 76 2.9 SSE 17 26 9 14 1007.1 1006.9 0.0
04/05:00pm 24.3 25.5 19.8 76 2.9 SSE 13 20 7 11 1007.2 1007.0 0.0
04/04:30pm 23.6 24.6 20.3 82 2.1 SSE 15 20 8 11 1007.2 1007.0 0.0
04/04:00pm 23.0 24.5 20.5 86 1.6 SSE 13 19 7 10 1007.8 1007.6 0.0
04/03:30pm 24.9 24.8 18.8 69 3.9 S 17 24 9 13 1008.0 1007.8 0.0
04/03:00pm 25.4 23.6 17.8 62 4.8 S 24 37 13 20 1008.0 1007.8 0.0
04/02:30pm 25.1 24.8 18.3 66 4.3 S 17 26 9 14 1008.1 1007.9 0.0
04/02:00pm 26.4 26.3 19.5 66 4.5 SSE 19 28 10 15 1008.1 1007.9 0.0
04/01:30pm 25.6 25.6 18.0 63 4.8 S 15 28 8 15 1008.3 1008.1 0.0
04/01:00pm 25.5 27.6 20.1 72 3.5 SSW 9 13 5 7 1008.1 1007.9 0.0
04/12:30pm 25.6 26.4 19.9 70 3.7 SE 15 20 8 11 1008.1 1007.9 0.0
04/12:00pm 25.1 25.9 19.9 73 3.4 SE 15 24 8 13 1008.0 1007.8 0.0
04/11:30am 25.2 27.1 20.5 75 3.1 SSE 11 15 6 8 1007.8 1007.6 0.0
04/11:00am 24.6 26.8 20.5 78 2.7 SSE 9 13 5 7 1007.8 1007.6 0.0
04/10:30am 25.2 27.2 20.7 76 3.0 S 11 17 6 9 1007.8 1007.6 0.0
04/10:00am 25.0 27.5 21.1 79 2.6 SSW 9 13 5 7 1007.8 1007.6 0.0
04/09:30am 24.6 27.6 21.3 82 2.2 SSW 7 11 4 6 1007.5 1007.3 0.0
04/09:00am 23.4 26.1 21.3 88 1.4 SW 9 13 5 7 1007.6 1007.4 0.2
04/08:30am 22.9 26.0 21.4 91 1.0 SSW 7 9 4 5 1007.5 1007.3 0.2
04/08:00am 22.5 25.6 21.1 92 0.9 SSW 6 9 3 5 1007.2 1007.0 0.2
04/07:30am 22.1 25.5 20.9 93 0.8 SSW 4 7 2 4 1006.8 1006.6 0.2
04/07:00am 22.0 24.4 20.8 93 0.8 SSW 9 13 5 7 1006.4 1006.2 0.2
04/06:30am 21.8 23.8 20.8 94 0.6 SSW 11 15 6 8 1005.9 1005.7 0.2
04/06:00am 21.9 24.4 21.1 95 0.5 SSW 9 13 5 7 1005.5 1005.3 0.2
04/05:58am 21.9 24.4 21.1 95 0.5 S 9 13 5 7 1005.5 1005.3 0.2
04/05:30am 21.7 24.0 20.7 94 0.6 SSW 9 13 5 7 1005.1 1004.9 0.2
04/05:17am 21.7 24.2 20.2 91 1.0 SW 7 9 4 5 1005.0 1004.8 0.2
04/05:00am 22.0 23.7 20.1 89 1.2 SSW 11 15 6 8 1004.7 1004.5 0.2
04/04:30am 22.2 23.1 20.8 92 0.9 S 17 22 9 12 1004.3 1004.1 0.2
04/04:00am 22.4 23.1 20.5 89 1.2 S 17 24 9 13 1004.4 1004.2 0.2
04/03:30am 23.2 25.6 21.6 91 1.1 SSW 11 17 6 9 1004.3 1004.1 0.0
04/03:00am 23.4 27.0 22.0 92 0.9 SSW 6 9 3 5 1004.2 1004.0 0.0
04/02:30am 23.6 26.8 22.4 93 0.8 SSW 9 13 5 7 1004.4 1004.2 0.0
04/02:00am 23.7 26.5 22.3 92 0.9 S 11 13 6 7 1004.5 1004.3 0.0
04/01:38am 24.0 27.3 21.9 88 1.4 SSE 7 7 4 4 1004.8 1004.6 0.0
04/01:30am 24.3 28.3 22.0 87 1.5 S 4 7 2 4 1004.9 1004.7 0.0
04/01:17am 24.6 29.2 21.7 84 1.9 CALM 0 6 0 3 1005.0 1004.8 0.0
04/01:00am 25.1 27.8 21.4 80 2.5 S 9 11 5 6 1004.9 1004.7 0.0
04/12:30am 25.3 28.4 21.0 77 2.8 S 6 7 3 4 1005.0 1004.8 0.0
04/12:00am 25.5 28.7 21.2 77 2.8 S 6 9 3 5 1005.2 1005.0 0.0
 
Date/Time
EDT
Temp
°C
App
Temp
°C
Dew
Point
Rel
Hum
%
Delta-T
°C
Wind Press
QNH
hPa
Press
MSL
hPa
Rain
since 9 am
mm
Dir
 
Spd
km/h
Gust
km/h
Spd
kts
Gust
kts
03/11:30pm 25.6 29.2 20.6 74 3.3 SSW 2 6 1 3 1005.2 1005.0 0.0
03/11:00pm 25.7 29.3 20.5 73 3.4 S 2 6 1 3 1005.0 1004.8 0.0
03/10:30pm 25.9 28.6 20.7 73 3.4 S 7 9 4 5 1005.1 1004.9 0.0
03/10:00pm 26.1 28.8 20.2 70 3.9 SE 6 7 3 4 1004.9 1004.7 0.0
03/09:30pm 26.3 28.8 20.2 69 4.0 SSE 7 9 4 5 1004.7 1004.5 0.0
03/09:00pm 26.5 28.1 19.9 67 4.3 SE 11 13 6 7 1004.0 1003.8 0.0
03/08:30pm 26.8 29.3 19.9 66 4.5 ESE 6 7 3 4 1003.7 1003.5 0.0
03/08:00pm 26.8 28.1 19.4 64 4.8 ENE 11 15 6 8 1003.1 1002.9 0.0
03/07:30pm 28.0 29.0 17.8 54 6.5 E 9 15 5 8 1002.4 1002.2 0.0
03/07:00pm 28.8 28.1 16.4 47 7.7 E 15 20 8 11 1002.2 1002.0 0.0
03/06:30pm 30.0 29.9 17.8 48 7.8 E 15 24 8 13 1001.5 1001.3 0.0

Other Formats:

Comma delimited format used in spreadsheet applications
http://www.bom.gov.au/fwo/IDN60801/IDN60801.95570.axf

JavaScript Object Notation format (JSON) in row-major order
http://www.bom.gov.au/fwo/IDN60801/IDN60801.95570.json